sensor_id;sensor_type;location;lat;lon;timestamp;P1;durP1;ratioP1;P2;durP2;ratioP2
4182;SDS011;2105;52.300;9.182;2023-03-04T00:02:14;25.77;;;12.37;;
4182;SDS011;2105;52.300;9.182;2023-03-04T00:04:42;25.00;;;11.87;;
4182;SDS011;2105;52.300;9.182;2023-03-04T00:07:09;18.30;;;11.43;;
4182;SDS011;2105;52.300;9.182;2023-03-04T00:09:36;25.73;;;11.70;;
4182;SDS011;2105;52.300;9.182;2023-03-04T00:12:03;19.80;;;13.03;;
4182;SDS011;2105;52.300;9.182;2023-03-04T00:14:31;26.03;;;12.50;;
4182;SDS011;2105;52.300;9.182;2023-03-04T00:16:58;30.20;;;12.60;;
4182;SDS011;2105;52.300;9.182;2023-03-04T00:19:27;39.33;;;12.80;;
4182;SDS011;2105;52.300;9.182;2023-03-04T00:21:55;21.77;;;11.97;;
4182;SDS011;2105;52.300;9.182;2023-03-04T00:24:22;28.93;;;12.40;;
4182;SDS011;2105;52.300;9.182;2023-03-04T00:26:50;26.67;;;12.63;;
4182;SDS011;2105;52.300;9.182;2023-03-04T00:29:17;30.67;;;12.90;;
4182;SDS011;2105;52.300;9.182;2023-03-04T00:31:43;24.20;;;12.10;;
4182;SDS011;2105;52.300;9.182;2023-03-04T00:34:10;24.30;;;12.97;;
4182;SDS011;2105;52.300;9.182;2023-03-04T00:36:37;30.70;;;12.47;;
4182;SDS011;2105;52.300;9.182;2023-03-04T00:39:05;30.00;;;13.13;;
4182;SDS011;2105;52.300;9.182;2023-03-04T00:41:32;32.77;;;13.70;;
4182;SDS011;2105;52.300;9.182;2023-03-04T00:43:59;27.50;;;12.90;;
4182;SDS011;2105;52.300;9.182;2023-03-04T00:46:26;39.83;;;13.27;;
4182;SDS011;2105;52.300;9.182;2023-03-04T00:48:52;36.70;;;12.27;;
4182;SDS011;2105;52.300;9.182;2023-03-04T00:51:19;42.60;;;12.53;;
4182;SDS011;2105;52.300;9.182;2023-03-04T00:53:46;27.70;;;12.67;;
4182;SDS011;2105;52.300;9.182;2023-03-04T00:56:14;23.57;;;12.90;;
4182;SDS011;2105;52.300;9.182;2023-03-04T00:58:41;37.80;;;12.20;;
4182;SDS011;2105;52.300;9.182;2023-03-04T01:01:08;33.70;;;13.27;;
4182;SDS011;2105;52.300;9.182;2023-03-04T01:03:34;32.53;;;13.23;;
4182;SDS011;2105;52.300;9.182;2023-03-04T01:06:01;24.77;;;12.30;;
4182;SDS011;2105;52.300;9.182;2023-03-04T01:08:28;28.23;;;12.20;;
4182;SDS011;2105;52.300;9.182;2023-03-04T01:10:55;21.43;;;12.00;;
4182;SDS011;2105;52.300;9.182;2023-03-04T01:13:23;29.80;;;11.63;;
4182;SDS011;2105;52.300;9.182;2023-03-04T01:15:50;28.70;;;12.03;;
4182;SDS011;2105;52.300;9.182;2023-03-04T01:18:16;24.93;;;12.27;;
4182;SDS011;2105;52.300;9.182;2023-03-04T01:20:43;30.50;;;12.93;;
4182;SDS011;2105;52.300;9.182;2023-03-04T01:23:10;23.70;;;11.93;;
4182;SDS011;2105;52.300;9.182;2023-03-04T01:25:37;26.10;;;11.90;;
4182;SDS011;2105;52.300;9.182;2023-03-04T01:28:04;26.67;;;11.80;;
4182;SDS011;2105;52.300;9.182;2023-03-04T01:30:32;35.47;;;11.80;;
4182;SDS011;2105;52.300;9.182;2023-03-04T01:32:59;24.33;;;12.10;;
4182;SDS011;2105;52.300;9.182;2023-03-04T01:35:26;24.83;;;12.10;;
4182;SDS011;2105;52.300;9.182;2023-03-04T01:37:53;27.03;;;11.53;;
4182;SDS011;2105;52.300;9.182;2023-03-04T01:40:20;34.13;;;11.70;;
4182;SDS011;2105;52.300;9.182;2023-03-04T01:42:47;21.20;;;11.03;;
4182;SDS011;2105;52.300;9.182;2023-03-04T01:45:14;33.03;;;12.40;;
4182;SDS011;2105;52.300;9.182;2023-03-04T01:47:44;25.63;;;11.30;;
4182;SDS011;2105;52.300;9.182;2023-03-04T01:50:15;23.37;;;11.47;;
4182;SDS011;2105;52.300;9.182;2023-03-04T01:52:46;19.80;;;11.10;;
4182;SDS011;2105;52.300;9.182;2023-03-04T01:55:16;35.17;;;11.40;;
4182;SDS011;2105;52.300;9.182;2023-03-04T01:57:44;25.20;;;11.00;;
4182;SDS011;2105;52.300;9.182;2023-03-04T02:00:19;29.13;;;11.40;;
4182;SDS011;2105;52.300;9.182;2023-03-04T02:02:51;30.43;;;12.60;;
4182;SDS011;2105;52.300;9.182;2023-03-04T02:05:20;30.20;;;10.47;;
4182;SDS011;2105;52.300;9.182;2023-03-04T02:07:47;26.73;;;11.17;;
4182;SDS011;2105;52.300;9.182;2023-03-04T02:10:14;18.40;;;10.87;;
4182;SDS011;2105;52.300;9.182;2023-03-04T02:12:41;20.37;;;10.30;;
4182;SDS011;2105;52.300;9.182;2023-03-04T02:15:09;19.70;;;10.40;;
4182;SDS011;2105;52.300;9.182;2023-03-04T02:17:36;28.13;;;11.30;;
4182;SDS011;2105;52.300;9.182;2023-03-04T02:20:08;24.70;;;11.43;;
4182;SDS011;2105;52.300;9.182;2023-03-04T02:22:47;26.23;;;11.40;;
4182;SDS011;2105;52.300;9.182;2023-03-04T02:25:23;27.57;;;10.20;;
4182;SDS011;2105;52.300;9.182;2023-03-04T02:27:57;21.97;;;11.00;;
4182;SDS011;2105;52.300;9.182;2023-03-04T02:30:24;22.00;;;10.70;;
4182;SDS011;2105;52.300;9.182;2023-03-04T02:32:51;23.93;;;10.70;;
4182;SDS011;2105;52.300;9.182;2023-03-04T02:35:19;20.67;;;10.37;;
4182;SDS011;2105;52.300;9.182;2023-03-04T02:37:46;23.80;;;10.70;;
4182;SDS011;2105;52.300;9.182;2023-03-04T02:40:13;27.13;;;10.30;;
4182;SDS011;2105;52.300;9.182;2023-03-04T02:42:43;18.00;;;10.30;;
4182;SDS011;2105;52.300;9.182;2023-03-04T02:45:30;27.33;;;10.30;;
4182;SDS011;2105;52.300;9.182;2023-03-04T02:48:01;25.53;;;10.80;;
4182;SDS011;2105;52.300;9.182;2023-03-04T02:50:29;23.17;;;10.30;;
4182;SDS011;2105;52.300;9.182;2023-03-04T02:52:59;24.13;;;10.00;;
4182;SDS011;2105;52.300;9.182;2023-03-04T02:55:26;20.37;;;9.73;;
4182;SDS011;2105;52.300;9.182;2023-03-04T02:57:53;19.47;;;9.67;;
4182;SDS011;2105;52.300;9.182;2023-03-04T03:00:20;18.87;;;9.57;;
4182;SDS011;2105;52.300;9.182;2023-03-04T03:02:48;27.23;;;10.40;;
4182;SDS011;2105;52.300;9.182;2023-03-04T03:05:15;23.97;;;9.80;;
4182;SDS011;2105;52.300;9.182;2023-03-04T03:07:42;32.67;;;10.67;;
4182;SDS011;2105;52.300;9.182;2023-03-04T03:10:10;19.73;;;9.43;;
4182;SDS011;2105;52.300;9.182;2023-03-04T03:12:37;31.07;;;10.70;;
4182;SDS011;2105;52.300;9.182;2023-03-04T03:15:04;17.10;;;9.57;;
4182;SDS011;2105;52.300;9.182;2023-03-04T03:17:32;28.93;;;10.17;;
4182;SDS011;2105;52.300;9.182;2023-03-04T03:20:00;23.53;;;10.43;;
4182;SDS011;2105;52.300;9.182;2023-03-04T03:22:27;15.93;;;9.47;;
4182;SDS011;2105;52.300;9.182;2023-03-04T03:24:54;25.30;;;10.50;;
4182;SDS011;2105;52.300;9.182;2023-03-04T03:27:21;21.63;;;10.87;;
4182;SDS011;2105;52.300;9.182;2023-03-04T03:29:48;19.43;;;9.77;;
4182;SDS011;2105;52.300;9.182;2023-03-04T03:32:15;23.23;;;9.90;;
4182;SDS011;2105;52.300;9.182;2023-03-04T03:34:41;27.53;;;10.70;;
4182;SDS011;2105;52.300;9.182;2023-03-04T03:37:10;17.90;;;9.60;;
4182;SDS011;2105;52.300;9.182;2023-03-04T03:39:37;16.13;;;9.10;;
4182;SDS011;2105;52.300;9.182;2023-03-04T03:42:04;17.40;;;9.00;;
4182;SDS011;2105;52.300;9.182;2023-03-04T03:44:31;14.70;;;9.43;;
4182;SDS011;2105;52.300;9.182;2023-03-04T03:46:58;24.33;;;9.87;;
4182;SDS011;2105;52.300;9.182;2023-03-04T03:49:24;20.00;;;10.00;;
4182;SDS011;2105;52.300;9.182;2023-03-04T03:51:52;21.33;;;9.93;;
4182;SDS011;2105;52.300;9.182;2023-03-04T03:54:20;22.57;;;9.83;;
4182;SDS011;2105;52.300;9.182;2023-03-04T03:56:47;20.47;;;10.47;;
4182;SDS011;2105;52.300;9.182;2023-03-04T03:59:14;18.03;;;10.37;;
4182;SDS011;2105;52.300;9.182;2023-03-04T04:01:41;18.00;;;9.03;;
4182;SDS011;2105;52.300;9.182;2023-03-04T04:04:07;17.33;;;9.83;;
4182;SDS011;2105;52.300;9.182;2023-03-04T04:06:34;18.23;;;10.67;;
4182;SDS011;2105;52.300;9.182;2023-03-04T04:09:01;20.03;;;9.67;;
4182;SDS011;2105;52.300;9.182;2023-03-04T04:11:29;15.90;;;8.90;;
4182;SDS011;2105;52.300;9.182;2023-03-04T04:13:56;20.53;;;9.43;;
4182;SDS011;2105;52.300;9.182;2023-03-04T04:16:23;14.63;;;9.07;;
4182;SDS011;2105;52.300;9.182;2023-03-04T04:18:50;16.60;;;9.17;;
4182;SDS011;2105;52.300;9.182;2023-03-04T04:21:16;18.53;;;9.63;;
4182;SDS011;2105;52.300;9.182;2023-03-04T04:23:43;14.40;;;8.67;;
4182;SDS011;2105;52.300;9.182;2023-03-04T04:26:10;20.70;;;10.07;;
4182;SDS011;2105;52.300;9.182;2023-03-04T04:28:38;22.13;;;9.93;;
4182;SDS011;2105;52.300;9.182;2023-03-04T04:31:05;12.93;;;8.77;;
4182;SDS011;2105;52.300;9.182;2023-03-04T04:33:33;22.33;;;9.40;;
4182;SDS011;2105;52.300;9.182;2023-03-04T04:36:00;17.43;;;9.13;;
4182;SDS011;2105;52.300;9.182;2023-03-04T04:38:27;17.70;;;9.10;;
4182;SDS011;2105;52.300;9.182;2023-03-04T04:40:55;20.23;;;9.60;;
4182;SDS011;2105;52.300;9.182;2023-03-04T04:43:23;23.33;;;9.00;;
4182;SDS011;2105;52.300;9.182;2023-03-04T04:45:52;15.20;;;9.30;;
4182;SDS011;2105;52.300;9.182;2023-03-04T04:48:18;22.17;;;9.00;;
4182;SDS011;2105;52.300;9.182;2023-03-04T04:50:45;14.87;;;9.10;;
4182;SDS011;2105;52.300;9.182;2023-03-04T04:53:12;16.60;;;8.90;;
4182;SDS011;2105;52.300;9.182;2023-03-04T04:55:39;14.53;;;8.23;;
4182;SDS011;2105;52.300;9.182;2023-03-04T04:58:06;18.83;;;8.37;;
4182;SDS011;2105;52.300;9.182;2023-03-04T05:00:33;15.70;;;8.97;;
4182;SDS011;2105;52.300;9.182;2023-03-04T05:03:01;21.83;;;7.80;;
4182;SDS011;2105;52.300;9.182;2023-03-04T05:05:28;17.43;;;8.23;;
4182;SDS011;2105;52.300;9.182;2023-03-04T05:07:54;17.50;;;8.33;;
4182;SDS011;2105;52.300;9.182;2023-03-04T05:10:21;16.73;;;8.33;;
4182;SDS011;2105;52.300;9.182;2023-03-04T05:12:48;15.33;;;8.33;;
4182;SDS011;2105;52.300;9.182;2023-03-04T05:15:15;17.90;;;8.60;;
4182;SDS011;2105;52.300;9.182;2023-03-04T05:17:42;17.27;;;8.03;;
4182;SDS011;2105;52.300;9.182;2023-03-04T05:20:10;16.93;;;8.47;;
4182;SDS011;2105;52.300;9.182;2023-03-04T05:22:37;14.77;;;7.90;;
4182;SDS011;2105;52.300;9.182;2023-03-04T05:25:05;10.60;;;7.53;;
4182;SDS011;2105;52.300;9.182;2023-03-04T05:27:32;18.63;;;9.23;;
4182;SDS011;2105;52.300;9.182;2023-03-04T05:29:59;17.67;;;8.10;;
4182;SDS011;2105;52.300;9.182;2023-03-04T05:32:25;12.33;;;8.20;;
4182;SDS011;2105;52.300;9.182;2023-03-04T05:34:52;15.40;;;8.03;;
4182;SDS011;2105;52.300;9.182;2023-03-04T05:37:20;20.17;;;7.87;;
4182;SDS011;2105;52.300;9.182;2023-03-04T05:39:47;24.57;;;8.20;;
4182;SDS011;2105;52.300;9.182;2023-03-04T05:42:14;20.90;;;7.70;;
4182;SDS011;2105;52.300;9.182;2023-03-04T05:44:41;15.37;;;7.60;;
4182;SDS011;2105;52.300;9.182;2023-03-04T05:47:07;12.87;;;7.20;;
4182;SDS011;2105;52.300;9.182;2023-03-04T05:49:34;12.97;;;7.63;;
4182;SDS011;2105;52.300;9.182;2023-03-04T05:52:01;13.10;;;7.40;;
4182;SDS011;2105;52.300;9.182;2023-03-04T05:54:29;10.93;;;7.13;;
4182;SDS011;2105;52.300;9.182;2023-03-04T05:56:56;21.97;;;7.37;;
4182;SDS011;2105;52.300;9.182;2023-03-04T05:59:23;17.07;;;7.37;;
4182;SDS011;2105;52.300;9.182;2023-03-04T06:01:50;13.90;;;7.00;;
4182;SDS011;2105;52.300;9.182;2023-03-04T06:04:17;12.63;;;7.13;;
4182;SDS011;2105;52.300;9.182;2023-03-04T06:06:44;17.43;;;7.50;;
4182;SDS011;2105;52.300;9.182;2023-03-04T06:09:12;13.23;;;7.20;;
4182;SDS011;2105;52.300;9.182;2023-03-04T06:11:41;16.33;;;6.83;;
4182;SDS011;2105;52.300;9.182;2023-03-04T06:14:08;24.13;;;6.80;;
4182;SDS011;2105;52.300;9.182;2023-03-04T06:16:34;12.80;;;7.13;;
4182;SDS011;2105;52.300;9.182;2023-03-04T06:19:01;9.37;;;6.20;;
4182;SDS011;2105;52.300;9.182;2023-03-04T06:21:28;21.20;;;8.30;;
4182;SDS011;2105;52.300;9.182;2023-03-04T06:23:55;16.13;;;6.40;;
4182;SDS011;2105;52.300;9.182;2023-03-04T06:26:22;11.60;;;7.20;;
4182;SDS011;2105;52.300;9.182;2023-03-04T06:28:50;12.03;;;6.57;;
4182;SDS011;2105;52.300;9.182;2023-03-04T06:31:20;13.30;;;6.90;;
4182;SDS011;2105;52.300;9.182;2023-03-04T06:33:47;15.47;;;7.10;;
4182;SDS011;2105;52.300;9.182;2023-03-04T06:36:14;18.37;;;7.57;;
4182;SDS011;2105;52.300;9.182;2023-03-04T06:38:41;16.10;;;6.57;;
4182;SDS011;2105;52.300;9.182;2023-03-04T06:41:08;16.53;;;7.23;;
4182;SDS011;2105;52.300;9.182;2023-03-04T06:43:36;14.37;;;6.67;;
4182;SDS011;2105;52.300;9.182;2023-03-04T06:46:05;21.10;;;6.70;;
4182;SDS011;2105;52.300;9.182;2023-03-04T06:48:32;23.63;;;6.70;;
4182;SDS011;2105;52.300;9.182;2023-03-04T06:51:03;17.50;;;6.10;;
4182;SDS011;2105;52.300;9.182;2023-03-04T06:53:31;17.13;;;6.40;;
4182;SDS011;2105;52.300;9.182;2023-03-04T06:55:57;15.07;;;5.90;;
4182;SDS011;2105;52.300;9.182;2023-03-04T06:58:24;10.10;;;5.70;;
4182;SDS011;2105;52.300;9.182;2023-03-04T07:00:51;14.60;;;6.00;;
4182;SDS011;2105;52.300;9.182;2023-03-04T07:03:19;18.10;;;6.17;;
4182;SDS011;2105;52.300;9.182;2023-03-04T07:05:46;20.80;;;6.27;;
4182;SDS011;2105;52.300;9.182;2023-03-04T07:08:13;21.87;;;5.63;;
4182;SDS011;2105;52.300;9.182;2023-03-04T07:10:40;28.73;;;6.33;;
4182;SDS011;2105;52.300;9.182;2023-03-04T07:13:07;13.07;;;5.80;;
4182;SDS011;2105;52.300;9.182;2023-03-04T07:15:33;18.37;;;6.30;;
4182;SDS011;2105;52.300;9.182;2023-03-04T07:18:00;14.20;;;6.00;;
4182;SDS011;2105;52.300;9.182;2023-03-04T07:20:29;18.93;;;5.40;;
4182;SDS011;2105;52.300;9.182;2023-03-04T07:22:55;15.83;;;5.50;;
4182;SDS011;2105;52.300;9.182;2023-03-04T07:25:22;16.77;;;6.00;;
4182;SDS011;2105;52.300;9.182;2023-03-04T07:27:49;15.00;;;5.20;;
4182;SDS011;2105;52.300;9.182;2023-03-04T07:30:16;20.33;;;6.27;;
4182;SDS011;2105;52.300;9.182;2023-03-04T07:32:43;22.17;;;5.70;;
4182;SDS011;2105;52.300;9.182;2023-03-04T07:35:10;13.17;;;5.33;;
4182;SDS011;2105;52.300;9.182;2023-03-04T07:37:38;21.37;;;5.97;;
4182;SDS011;2105;52.300;9.182;2023-03-04T07:40:06;17.40;;;4.87;;
4182;SDS011;2105;52.300;9.182;2023-03-04T07:42:33;17.07;;;5.03;;
4182;SDS011;2105;52.300;9.182;2023-03-04T07:45:01;31.53;;;5.37;;
4182;SDS011;2105;52.300;9.182;2023-03-04T07:47:28;11.17;;;4.43;;
4182;SDS011;2105;52.300;9.182;2023-03-04T07:49:55;17.53;;;5.37;;
4182;SDS011;2105;52.300;9.182;2023-03-04T07:52:22;17.13;;;5.53;;
4182;SDS011;2105;52.300;9.182;2023-03-04T07:54:50;23.20;;;5.70;;
4182;SDS011;2105;52.300;9.182;2023-03-04T07:57:17;18.47;;;5.30;;
4182;SDS011;2105;52.300;9.182;2023-03-04T07:59:44;14.23;;;4.87;;
4182;SDS011;2105;52.300;9.182;2023-03-04T08:02:11;10.10;;;4.93;;
4182;SDS011;2105;52.300;9.182;2023-03-04T08:04:37;11.27;;;5.00;;
4182;SDS011;2105;52.300;9.182;2023-03-04T08:07:04;15.07;;;5.20;;
4182;SDS011;2105;52.300;9.182;2023-03-04T08:09:31;12.73;;;5.00;;
4182;SDS011;2105;52.300;9.182;2023-03-04T08:11:59;20.83;;;5.13;;
4182;SDS011;2105;52.300;9.182;2023-03-04T08:14:26;18.30;;;5.40;;
4182;SDS011;2105;52.300;9.182;2023-03-04T08:16:53;11.03;;;4.80;;
4182;SDS011;2105;52.300;9.182;2023-03-04T08:19:19;20.07;;;5.90;;
4182;SDS011;2105;52.300;9.182;2023-03-04T08:21:46;14.23;;;5.27;;
4182;SDS011;2105;52.300;9.182;2023-03-04T08:24:13;17.50;;;5.80;;
4182;SDS011;2105;52.300;9.182;2023-03-04T08:26:41;16.37;;;5.57;;
4182;SDS011;2105;52.300;9.182;2023-03-04T08:29:11;20.23;;;5.47;;
4182;SDS011;2105;52.300;9.182;2023-03-04T08:31:40;13.30;;;5.47;;
4182;SDS011;2105;52.300;9.182;2023-03-04T08:34:08;9.77;;;4.80;;
4182;SDS011;2105;52.300;9.182;2023-03-04T08:36:37;17.83;;;5.07;;
4182;SDS011;2105;52.300;9.182;2023-03-04T08:39:04;21.63;;;6.47;;
4182;SDS011;2105;52.300;9.182;2023-03-04T08:41:31;18.10;;;5.40;;
4182;SDS011;2105;52.300;9.182;2023-03-04T08:43:58;13.27;;;5.10;;
4182;SDS011;2105;52.300;9.182;2023-03-04T08:46:27;21.10;;;5.97;;
4182;SDS011;2105;52.300;9.182;2023-03-04T08:48:54;17.13;;;5.67;;
4182;SDS011;2105;52.300;9.182;2023-03-04T08:51:21;18.73;;;5.07;;
4182;SDS011;2105;52.300;9.182;2023-03-04T08:53:48;24.37;;;5.33;;
4182;SDS011;2105;52.300;9.182;2023-03-04T08:56:14;16.50;;;5.53;;
4182;SDS011;2105;52.300;9.182;2023-03-04T08:58:41;20.63;;;5.17;;
4182;SDS011;2105;52.300;9.182;2023-03-04T09:01:09;16.63;;;5.90;;
4182;SDS011;2105;52.300;9.182;2023-03-04T09:03:38;10.83;;;5.20;;
4182;SDS011;2105;52.300;9.182;2023-03-04T09:06:05;23.20;;;5.53;;
4182;SDS011;2105;52.300;9.182;2023-03-04T09:08:34;9.03;;;5.37;;
4182;SDS011;2105;52.300;9.182;2023-03-04T09:11:01;11.47;;;4.70;;
4182;SDS011;2105;52.300;9.182;2023-03-04T09:13:29;11.90;;;4.97;;
4182;SDS011;2105;52.300;9.182;2023-03-04T09:15:56;10.87;;;5.00;;
4182;SDS011;2105;52.300;9.182;2023-03-04T09:18:24;12.87;;;5.27;;
4182;SDS011;2105;52.300;9.182;2023-03-04T09:20:52;15.07;;;5.10;;
4182;SDS011;2105;52.300;9.182;2023-03-04T09:23:19;12.87;;;6.20;;
4182;SDS011;2105;52.300;9.182;2023-03-04T09:25:46;10.47;;;5.70;;
4182;SDS011;2105;52.300;9.182;2023-03-04T09:28:14;12.47;;;5.73;;
4182;SDS011;2105;52.300;9.182;2023-03-04T09:30:42;12.27;;;6.90;;
4182;SDS011;2105;52.300;9.182;2023-03-04T09:33:09;7.87;;;5.40;;
4182;SDS011;2105;52.300;9.182;2023-03-04T09:35:36;18.27;;;6.53;;
4182;SDS011;2105;52.300;9.182;2023-03-04T09:38:05;18.20;;;6.53;;
4182;SDS011;2105;52.300;9.182;2023-03-04T09:40:36;11.97;;;5.63;;
4182;SDS011;2105;52.300;9.182;2023-03-04T09:43:09;7.77;;;6.30;;
4182;SDS011;2105;52.300;9.182;2023-03-04T09:45:40;8.27;;;5.90;;
4182;SDS011;2105;52.300;9.182;2023-03-04T09:48:12;9.40;;;6.13;;
4182;SDS011;2105;52.300;9.182;2023-03-04T09:50:43;6.73;;;6.00;;
4182;SDS011;2105;52.300;9.182;2023-03-04T09:53:24;8.70;;;6.27;;
4182;SDS011;2105;52.300;9.182;2023-03-04T09:55:59;16.43;;;7.23;;
4182;SDS011;2105;52.300;9.182;2023-03-04T09:58:32;10.67;;;6.43;;
4182;SDS011;2105;52.300;9.182;2023-03-04T10:01:09;9.83;;;5.63;;
4182;SDS011;2105;52.300;9.182;2023-03-04T10:03:44;12.83;;;6.60;;
4182;SDS011;2105;52.300;9.182;2023-03-04T10:06:15;9.50;;;6.07;;
4182;SDS011;2105;52.300;9.182;2023-03-04T10:08:46;9.30;;;6.07;;
4182;SDS011;2105;52.300;9.182;2023-03-04T10:11:19;10.93;;;5.83;;
4182;SDS011;2105;52.300;9.182;2023-03-04T10:13:55;15.10;;;6.57;;
4182;SDS011;2105;52.300;9.182;2023-03-04T10:16:28;14.10;;;6.37;;
4182;SDS011;2105;52.300;9.182;2023-03-04T10:19:01;19.17;;;7.10;;
4182;SDS011;2105;52.300;9.182;2023-03-04T10:21:40;14.03;;;7.53;;
4182;SDS011;2105;52.300;9.182;2023-03-04T10:24:11;13.20;;;7.20;;
4182;SDS011;2105;52.300;9.182;2023-03-04T10:26:42;15.40;;;7.27;;
4182;SDS011;2105;52.300;9.182;2023-03-04T10:29:12;15.37;;;7.63;;
4182;SDS011;2105;52.300;9.182;2023-03-04T10:31:40;15.77;;;7.27;;
4182;SDS011;2105;52.300;9.182;2023-03-04T10:34:08;14.47;;;8.30;;
4182;SDS011;2105;52.300;9.182;2023-03-04T10:36:43;16.73;;;7.80;;
4182;SDS011;2105;52.300;9.182;2023-03-04T10:39:20;20.30;;;8.17;;
4182;SDS011;2105;52.300;9.182;2023-03-04T10:41:53;11.40;;;7.33;;
4182;SDS011;2105;52.300;9.182;2023-03-04T10:44:22;11.40;;;6.90;;
4182;SDS011;2105;52.300;9.182;2023-03-04T10:46:49;14.13;;;7.03;;
4182;SDS011;2105;52.300;9.182;2023-03-04T10:49:19;14.33;;;7.17;;
4182;SDS011;2105;52.300;9.182;2023-03-04T10:51:49;12.83;;;7.00;;
4182;SDS011;2105;52.300;9.182;2023-03-04T10:54:26;12.60;;;7.20;;
4182;SDS011;2105;52.300;9.182;2023-03-04T10:56:56;13.17;;;7.67;;
4182;SDS011;2105;52.300;9.182;2023-03-04T10:59:38;15.20;;;7.60;;
4182;SDS011;2105;52.300;9.182;2023-03-04T11:02:15;18.00;;;7.87;;
4182;SDS011;2105;52.300;9.182;2023-03-04T11:04:48;23.00;;;7.57;;
4182;SDS011;2105;52.300;9.182;2023-03-04T11:07:30;14.37;;;7.40;;
4182;SDS011;2105;52.300;9.182;2023-03-04T11:10:07;13.47;;;6.60;;
4182;SDS011;2105;52.300;9.182;2023-03-04T11:12:35;17.30;;;7.47;;
4182;SDS011;2105;52.300;9.182;2023-03-04T11:15:02;15.80;;;8.20;;
4182;SDS011;2105;52.300;9.182;2023-03-04T11:17:43;12.70;;;8.20;;
4182;SDS011;2105;52.300;9.182;2023-03-04T11:20:16;11.97;;;8.90;;
4182;SDS011;2105;52.300;9.182;2023-03-04T11:22:50;11.37;;;9.20;;
4182;SDS011;2105;52.300;9.182;2023-03-04T11:25:22;13.30;;;9.73;;
4182;SDS011;2105;52.300;9.182;2023-03-04T11:27:52;10.30;;;9.20;;
4182;SDS011;2105;52.300;9.182;2023-03-04T11:30:24;27.23;;;9.07;;
4182;SDS011;2105;52.300;9.182;2023-03-04T11:33:02;14.20;;;8.53;;
4182;SDS011;2105;52.300;9.182;2023-03-04T11:35:41;8.47;;;7.60;;
4182;SDS011;2105;52.300;9.182;2023-03-04T11:38:17;12.87;;;7.40;;
4182;SDS011;2105;52.300;9.182;2023-03-04T11:40:48;14.33;;;8.00;;
4182;SDS011;2105;52.300;9.182;2023-03-04T11:43:19;17.17;;;8.10;;
4182;SDS011;2105;52.300;9.182;2023-03-04T11:48:52;10.17;;;7.00;;
4182;SDS011;2105;52.300;9.182;2023-03-04T11:51:26;11.90;;;7.27;;
4182;SDS011;2105;52.300;9.182;2023-03-04T11:54:03;14.60;;;7.93;;
4182;SDS011;2105;52.300;9.182;2023-03-04T11:56:42;15.70;;;7.50;;
4182;SDS011;2105;52.300;9.182;2023-03-04T11:59:28;11.93;;;7.00;;
4182;SDS011;2105;52.300;9.182;2023-03-04T12:02:15;12.47;;;7.50;;
4182;SDS011;2105;52.300;9.182;2023-03-04T12:10:48;14.43;;;6.87;;
4182;SDS011;2105;52.300;9.182;2023-03-04T12:13:34;12.40;;;7.10;;
4182;SDS011;2105;52.300;9.182;2023-03-04T12:16:15;10.73;;;7.27;;
4182;SDS011;2105;52.300;9.182;2023-03-04T12:18:55;10.63;;;7.83;;
4182;SDS011;2105;52.300;9.182;2023-03-04T12:21:40;14.50;;;8.23;;
4182;SDS011;2105;52.300;9.182;2023-03-04T12:24:36;11.33;;;7.97;;
4182;SDS011;2105;52.300;9.182;2023-03-04T12:27:16;12.90;;;8.73;;
4182;SDS011;2105;52.300;9.182;2023-03-04T12:29:53;16.73;;;9.50;;
4182;SDS011;2105;52.300;9.182;2023-03-04T12:32:26;16.70;;;9.43;;
4182;SDS011;2105;52.300;9.182;2023-03-04T12:35:02;16.87;;;10.30;;
4182;SDS011;2105;52.300;9.182;2023-03-04T12:37:56;14.60;;;9.80;;
4182;SDS011;2105;52.300;9.182;2023-03-04T12:40:42;16.27;;;10.50;;
4182;SDS011;2105;52.300;9.182;2023-03-04T12:43:22;20.30;;;10.33;;
4182;SDS011;2105;52.300;9.182;2023-03-04T12:46:06;12.07;;;10.63;;
4182;SDS011;2105;52.300;9.182;2023-03-04T12:48:43;17.37;;;11.37;;
4182;SDS011;2105;52.300;9.182;2023-03-04T12:51:22;14.13;;;11.33;;
4182;SDS011;2105;52.300;9.182;2023-03-04T12:53:59;11.90;;;10.40;;
4182;SDS011;2105;52.300;9.182;2023-03-04T12:56:36;20.77;;;10.30;;
4182;SDS011;2105;52.300;9.182;2023-03-04T12:59:08;19.23;;;10.50;;
4182;SDS011;2105;52.300;9.182;2023-03-04T13:01:43;15.60;;;10.70;;
4182;SDS011;2105;52.300;9.182;2023-03-04T13:04:16;28.13;;;10.80;;
4182;SDS011;2105;52.300;9.182;2023-03-04T13:06:53;16.63;;;11.00;;
4182;SDS011;2105;52.300;9.182;2023-03-04T13:09:32;17.97;;;11.07;;
4182;SDS011;2105;52.300;9.182;2023-03-04T13:12:10;19.87;;;11.00;;
4182;SDS011;2105;52.300;9.182;2023-03-04T13:14:40;21.50;;;11.30;;
4182;SDS011;2105;52.300;9.182;2023-03-04T13:17:53;16.83;;;11.73;;
4182;SDS011;2105;52.300;9.182;2023-03-04T13:20:22;21.03;;;12.40;;
4182;SDS011;2105;52.300;9.182;2023-03-04T13:22:56;20.60;;;12.50;;
4182;SDS011;2105;52.300;9.182;2023-03-04T13:25:34;18.97;;;11.83;;
4182;SDS011;2105;52.300;9.182;2023-03-04T13:28:12;16.40;;;11.63;;
4182;SDS011;2105;52.300;9.182;2023-03-04T13:33:51;23.40;;;11.10;;
4182;SDS011;2105;52.300;9.182;2023-03-04T13:36:32;13.37;;;9.30;;
4182;SDS011;2105;52.300;9.182;2023-03-04T13:39:25;21.27;;;10.20;;
4182;SDS011;2105;52.300;9.182;2023-03-04T13:41:56;10.43;;;9.43;;
4182;SDS011;2105;52.300;9.182;2023-03-04T13:53:21;13.80;;;10.07;;
4182;SDS011;2105;52.300;9.182;2023-03-04T13:56:09;18.37;;;12.40;;
4182;SDS011;2105;52.300;9.182;2023-03-04T13:58:39;17.70;;;11.27;;
4182;SDS011;2105;52.300;9.182;2023-03-04T14:01:17;21.97;;;11.80;;
4182;SDS011;2105;52.300;9.182;2023-03-04T14:03:49;19.73;;;11.20;;
4182;SDS011;2105;52.300;9.182;2023-03-04T14:06:19;19.23;;;11.40;;
4182;SDS011;2105;52.300;9.182;2023-03-04T14:08:47;17.23;;;11.20;;
4182;SDS011;2105;52.300;9.182;2023-03-04T14:11:17;15.43;;;11.37;;
4182;SDS011;2105;52.300;9.182;2023-03-04T14:13:52;17.63;;;11.40;;
4182;SDS011;2105;52.300;9.182;2023-03-04T14:16:22;13.27;;;11.73;;
4182;SDS011;2105;52.300;9.182;2023-03-04T14:19:00;18.50;;;11.97;;
4182;SDS011;2105;52.300;9.182;2023-03-04T14:21:29;17.43;;;11.90;;
4182;SDS011;2105;52.300;9.182;2023-03-04T14:24:01;23.03;;;11.93;;
4182;SDS011;2105;52.300;9.182;2023-03-04T14:26:29;18.50;;;12.13;;
4182;SDS011;2105;52.300;9.182;2023-03-04T14:28:57;16.80;;;12.00;;
4182;SDS011;2105;52.300;9.182;2023-03-04T14:31:27;14.73;;;11.53;;
4182;SDS011;2105;52.300;9.182;2023-03-04T14:33:56;16.90;;;11.93;;
4182;SDS011;2105;52.300;9.182;2023-03-04T14:36:26;19.87;;;12.93;;
4182;SDS011;2105;52.300;9.182;2023-03-04T14:38:57;19.73;;;12.77;;
4182;SDS011;2105;52.300;9.182;2023-03-04T14:41:27;15.13;;;11.97;;
4182;SDS011;2105;52.300;9.182;2023-03-04T14:43:59;18.63;;;12.50;;
4182;SDS011;2105;52.300;9.182;2023-03-04T14:46:33;18.20;;;12.13;;
4182;SDS011;2105;52.300;9.182;2023-03-04T14:49:04;25.80;;;13.20;;
4182;SDS011;2105;52.300;9.182;2023-03-04T14:51:36;16.73;;;12.33;;
4182;SDS011;2105;52.300;9.182;2023-03-04T14:56:53;19.50;;;14.10;;
4182;SDS011;2105;52.300;9.182;2023-03-04T14:59:28;21.93;;;12.60;;
4182;SDS011;2105;52.300;9.182;2023-03-04T15:02:07;19.57;;;12.77;;
4182;SDS011;2105;52.300;9.182;2023-03-04T15:04:43;22.30;;;12.53;;
4182;SDS011;2105;52.300;9.182;2023-03-04T15:07:13;18.13;;;11.70;;
4182;SDS011;2105;52.300;9.182;2023-03-04T15:09:47;20.93;;;11.33;;
4182;SDS011;2105;52.300;9.182;2023-03-04T15:12:20;19.67;;;10.83;;
4182;SDS011;2105;52.300;9.182;2023-03-04T15:14:49;15.17;;;11.17;;
4182;SDS011;2105;52.300;9.182;2023-03-04T15:17:27;17.80;;;11.23;;
4182;SDS011;2105;52.300;9.182;2023-03-04T15:19:57;14.70;;;11.10;;
4182;SDS011;2105;52.300;9.182;2023-03-04T15:22:27;17.27;;;10.77;;
4182;SDS011;2105;52.300;9.182;2023-03-04T15:24:54;15.17;;;11.03;;
4182;SDS011;2105;52.300;9.182;2023-03-04T15:27:21;18.40;;;11.43;;
4182;SDS011;2105;52.300;9.182;2023-03-04T15:29:49;23.00;;;11.80;;
4182;SDS011;2105;52.300;9.182;2023-03-04T15:32:20;21.07;;;11.60;;
4182;SDS011;2105;52.300;9.182;2023-03-04T15:34:47;18.60;;;12.30;;
4182;SDS011;2105;52.300;9.182;2023-03-04T15:37:15;19.70;;;11.50;;